Time;durP1;ratioP1;P1;durP2;ratioP2;P2;SDS_P1;SDS_P2;PMS_P1;PMS_P2;Temp;Humidity;BMP_temperature;BMP_pressure;BME280_temperature;BME280_humidity;BME280_pressure;Samples;Min_cycle;Max_cycle;Signal;HPM_P1;HPM_P2
2021/01/22 00:00:34;;;;;;;18.83;3.55;;;13.30;99.90;;;;;;4729917;30;20106;-81
2021/01/22 00:03:00;;;;;;;19.52;3.42;;;13.30;99.90;;;;;;4729411;30;20095;-82
2021/01/22 00:05:26;;;;;;;16.67;3.83;;;13.30;99.90;;;;;;4729892;30;20487;-82
2021/01/22 00:07:52;;;;;;;13.52;3.58;;;13.30;99.90;;;;;;4727096;30;20060;-82
2021/01/22 00:10:18;;;;;;;14.48;3.80;;;13.30;99.90;;;;;;4729465;30;20044;-82
2021/01/22 00:12:44;;;;;;;20.15;4.13;;;13.30;99.90;;;;;;4730498;30;20072;-81
2021/01/22 00:15:11;;;;;;;11.88;3.28;;;13.30;99.90;;;;;;4729822;30;20056;-83
2021/01/22 00:17:37;;;;;;;21.55;4.30;;;13.30;99.90;;;;;;4728946;30;20731;-81
2021/01/22 00:20:04;;;;;;;24.95;3.50;;;13.30;99.90;;;;;;4714432;30;20123;-82
2021/01/22 00:22:31;;;;;;;17.08;4.03;;;13.30;99.90;;;;;;4729880;30;20037;-82
2021/01/22 00:24:57;;;;;;;8.65;3.00;;;13.30;99.90;;;;;;4714701;30;20109;-82
2021/01/22 00:27:23;;;;;;;11.85;2.90;;;13.30;99.90;;;;;;4714765;30;20029;-82
2021/01/22 00:29:49;;;;;;;15.02;2.85;;;13.30;99.90;;;;;;4728438;30;20048;-81
2021/01/22 00:32:15;;;;;;;21.85;4.35;;;13.40;99.90;;;;;;4729089;30;20048;-81
2021/01/22 00:34:41;;;;;;;15.70;4.15;;;13.40;99.90;;;;;;4727959;30;20490;-82
2021/01/22 00:37:07;;;;;;;19.80;4.35;;;13.40;99.90;;;;;;4738430;30;20083;-83
2021/01/22 00:39:33;;;;;;;15.75;3.53;;;13.40;99.90;;;;;;4723587;30;20479;-81
2021/01/22 00:41:59;;;;;;;13.18;3.35;;;13.40;99.90;;;;;;4697706;30;20036;-82
2021/01/22 00:44:25;;;;;;;21.98;4.10;;;13.40;99.90;;;;;;4727791;30;20032;-82
2021/01/22 00:46:52;;;;;;;14.13;3.30;;;13.50;99.90;;;;;;4730079;30;20089;-82
2021/01/22 00:49:18;;;;;;;16.50;4.00;;;13.50;99.90;;;;;;4729092;30;20043;-83
2021/01/22 00:51:44;;;;;;;20.70;4.72;;;13.50;99.90;;;;;;4730182;30;20037;-83
2021/01/22 00:54:10;;;;;;;15.82;2.78;;;13.40;99.90;;;;;;4734225;30;20035;-83
2021/01/22 00:56:56;;;;;;;12.38;3.45;;;13.40;99.90;;;;;;4743685;30;20032;-82
2021/01/22 00:59:22;;;;;;;19.58;3.75;;;13.50;99.90;;;;;;4730831;30;20041;-83
2021/01/22 01:01:49;;;;;;;13.55;2.67;;;13.40;99.90;;;;;;4713191;30;20434;-82
2021/01/22 01:04:16;;;;;;;15.50;3.60;;;13.40;99.90;;;;;;4700775;30;20172;-82
2021/01/22 01:07:08;;;;;;;25.88;4.45;;;13.40;99.90;;;;;;4729860;30;20040;-83
2021/01/22 01:09:35;;;;;;;20.30;3.33;;;13.40;99.90;;;;;;4730938;30;20045;-83
2021/01/22 01:12:24;;;;;;;21.45;4.00;;;13.40;99.90;;;;;;4712897;30;20580;-82
2021/01/22 01:15:26;;;;;;;37.38;5.00;;;13.40;99.90;;;;;;4729855;30;20097;-83
2021/01/22 01:17:53;;;;;;;11.98;2.17;;;13.40;99.90;;;;;;4741382;30;20064;-83
2021/01/22 01:20:19;;;;;;;14.88;3.30;;;13.50;99.90;;;;;;4713096;30;20056;-83
2021/01/22 01:22:45;;;;;;;17.63;4.40;;;13.50;99.90;;;;;;4715413;30;20045;-83
2021/01/22 01:25:12;;;;;;;9.82;2.75;;;13.40;99.90;;;;;;4723638;30;20028;-82
2021/01/22 01:27:38;;;;;;;17.10;4.70;;;13.40;99.90;;;;;;4751792;30;20032;-82
2021/01/22 01:30:05;;;;;;;19.20;3.22;;;13.40;99.90;;;;;;4718383;30;20515;-82
2021/01/22 01:32:31;;;;;;;14.55;3.10;;;13.40;99.90;;;;;;4716270;30;20056;-82
2021/01/22 01:34:57;;;;;;;17.17;3.03;;;13.40;99.90;;;;;;4717466;30;20025;-82
2021/01/22 01:37:23;;;;;;;8.95;2.42;;;13.40;99.90;;;;;;4735196;30;20052;-82
2021/01/22 01:39:49;;;;;;;22.13;3.75;;;13.30;99.90;;;;;;4723023;30;20037;-82
2021/01/22 01:42:15;;;;;;;14.15;3.60;;;13.30;99.90;;;;;;4717598;30;20048;-82
2021/01/22 01:44:41;;;;;;;24.45;4.10;;;13.30;99.90;;;;;;4717469;30;20533;-83
2021/01/22 01:47:08;;;;;;;13.27;3.25;;;13.30;99.90;;;;;;4726931;30;20059;-82
2021/01/22 01:49:34;;;;;;;33.67;5.47;;;13.30;99.90;;;;;;4734818;30;20033;-83
2021/01/22 01:52:00;;;;;;;10.45;3.35;;;13.20;99.90;;;;;;4701641;30;20569;-83
2021/01/22 01:54:27;;;;;;;19.13;2.92;;;13.20;99.90;;;;;;4701828;30;20036;-82
2021/01/22 01:56:53;;;;;;;18.05;4.60;;;13.20;99.90;;;;;;4732589;30;20462;-83
2021/01/22 01:59:19;;;;;;;13.02;3.22;;;13.20;99.90;;;;;;4745352;30;20098;-82
2021/01/22 02:01:46;;;;;;;18.35;3.85;;;13.20;99.90;;;;;;4716099;30;20111;-83
2021/01/22 02:04:12;;;;;;;17.13;4.45;;;13.20;99.90;;;;;;4715908;30;20041;-82
2021/01/22 02:06:38;;;;;;;16.75;2.28;;;13.20;99.90;;;;;;4723282;30;20041;-82
2021/01/22 02:09:06;;;;;;;14.65;3.08;;;13.20;99.90;;;;;;4734741;30;20048;-83
2021/01/22 02:11:32;;;;;;;14.50;4.40;;;13.20;99.90;;;;;;4732657;30;20102;-83
2021/01/22 02:14:00;;;;;;;12.05;3.70;;;13.20;99.90;;;;;;4709939;30;20043;-83
2021/01/22 02:16:26;;;;;;;14.48;3.63;;;13.20;99.90;;;;;;4703778;30;20812;-82
2021/01/22 02:18:54;;;;;;;14.57;3.40;;;13.20;99.90;;;;;;4734386;30;20039;-83
2021/01/22 02:21:46;;;;;;;14.65;4.18;;;13.10;99.90;;;;;;4718531;30;20037;-82
2021/01/22 02:24:17;;;;;;;17.25;3.25;;;13.20;99.90;;;;;;4731167;30;20136;-82
2021/01/22 02:26:53;;;;;;;13.32;3.03;;;13.10;99.90;;;;;;4732830;30;20048;-82
2021/01/22 02:29:20;;;;;;;16.00;3.08;;;13.10;99.90;;;;;;4733115;30;20533;-83
2021/01/22 02:31:48;;;;;;;18.95;3.80;;;13.20;99.90;;;;;;4717879;30;20041;-83
2021/01/22 02:34:25;;;;;;;12.93;3.25;;;13.10;99.90;;;;;;4731989;30;20078;-82
2021/01/22 02:36:57;;;;;;;13.02;3.30;;;13.10;99.90;;;;;;4732271;30;20065;-82
2021/01/22 02:39:32;;;;;;;13.00;2.95;;;13.10;99.90;;;;;;4747233;30;20092;-83
2021/01/22 02:42:00;;;;;;;12.30;2.42;;;13.10;99.90;;;;;;4737863;30;20040;-82
2021/01/22 02:44:26;;;;;;;17.25;3.92;;;13.10;99.90;;;;;;4734091;30;20040;-83
2021/01/22 02:46:52;;;;;;;12.73;3.38;;;13.20;99.90;;;;;;4732696;30;20045;-83
2021/01/22 02:49:18;;;;;;;12.73;3.25;;;13.10;99.90;;;;;;4717035;30;20061;-82
2021/01/22 02:51:47;;;;;;;16.02;4.30;;;13.10;99.90;;;;;;4708297;30;20402;-83
2021/01/22 02:54:13;;;;;;;14.65;3.65;;;13.10;99.90;;;;;;4732808;30;20399;-82
2021/01/22 02:57:04;;;;;;;13.38;2.28;;;13.10;99.90;;;;;;4732798;30;20048;-83
2021/01/22 02:59:36;;;;;;;23.50;4.47;;;13.10;99.90;;;;;;4745176;30;20394;-83
2021/01/22 03:02:12;;;;;;;15.85;3.45;;;13.20;99.90;;;;;;4727109;30;20173;-82
2021/01/22 03:04:38;;;;;;;14.05;3.65;;;13.20;99.90;;;;;;4732498;30;20033;-83
2021/01/22 03:07:09;;;;;;;15.65;3.20;;;13.20;99.90;;;;;;4717786;30;20059;-82
2021/01/22 03:09:42;;;;;;;15.57;2.42;;;13.20;99.90;;;;;;4732534;30;20040;-83
2021/01/22 03:12:09;;;;;;;16.23;3.30;;;13.20;99.90;;;;;;4733130;30;20124;-83
2021/01/22 03:14:36;;;;;;;13.15;2.67;;;13.20;99.90;;;;;;4732197;30;20490;-83
2021/01/22 03:17:02;;;;;;;15.05;2.67;;;13.20;99.90;;;;;;4717570;30;20044;-82
2021/01/22 03:19:28;;;;;;;11.90;4.13;;;13.20;99.90;;;;;;4716842;30;20075;-83
2021/01/22 03:21:54;;;;;;;12.85;2.90;;;13.20;99.90;;;;;;4701252;30;20037;-83
2021/01/22 03:24:21;;;;;;;15.32;3.65;;;13.20;99.90;;;;;;4733498;30;20111;-83
2021/01/22 03:26:47;;;;;;;17.98;3.95;;;13.20;99.90;;;;;;4717344;30;20064;-82
2021/01/22 03:29:13;;;;;;;13.57;3.28;;;13.20;99.90;;;;;;4734924;30;20085;-82
2021/01/22 03:31:39;;;;;;;12.98;3.58;;;13.10;99.90;;;;;;4750955;30;20037;-83
2021/01/22 03:34:05;;;;;;;12.95;3.97;;;13.20;99.90;;;;;;4719629;30;20032;-82
2021/01/22 03:36:31;;;;;;;16.52;3.00;;;13.20;99.90;;;;;;4731821;30;20043;-83
2021/01/22 03:38:57;;;;;;;11.40;2.17;;;13.10;99.90;;;;;;4717055;30;20592;-83
2021/01/22 03:41:23;;;;;;;9.30;2.70;;;13.20;99.90;;;;;;4733399;30;20036;-82
2021/01/22 03:43:49;;;;;;;14.68;3.15;;;13.10;99.90;;;;;;4731674;30;20033;-83
2021/01/22 03:46:15;;;;;;;17.23;3.97;;;13.10;99.90;;;;;;4731522;30;20043;-82
2021/01/22 03:48:41;;;;;;;17.20;3.13;;;13.10;99.90;;;;;;4731639;30;20037;-82
2021/01/22 03:51:07;;;;;;;18.30;3.75;;;13.20;99.90;;;;;;4742585;30;20101;-82
2021/01/22 03:53:33;;;;;;;9.90;2.50;;;13.10;99.90;;;;;;4743964;30;20502;-83
2021/01/22 03:55:59;;;;;;;12.60;3.67;;;13.10;99.90;;;;;;4717154;30;20045;-83
2021/01/22 03:58:25;;;;;;;20.55;3.33;;;13.10;99.90;;;;;;4731395;30;20828;-83
2021/01/22 04:00:51;;;;;;;9.63;3.45;;;13.00;99.90;;;;;;4738973;30;20028;-82
2021/01/22 04:03:17;;;;;;;18.13;4.53;;;13.10;99.90;;;;;;4746940;30;20032;-83
2021/01/22 04:05:43;;;;;;;14.95;3.33;;;13.00;99.90;;;;;;4732590;30;20041;-83
2021/01/22 04:08:10;;;;;;;12.32;2.90;;;13.00;99.90;;;;;;4731066;30;20060;-82
2021/01/22 04:10:36;;;;;;;15.70;3.80;;;13.00;99.90;;;;;;4733716;30;20041;-82
2021/01/22 04:13:02;;;;;;;16.65;2.95;;;13.00;99.90;;;;;;4749845;30;20414;-82
2021/01/22 04:15:28;;;;;;;12.00;3.75;;;13.00;99.90;;;;;;4733418;30;20048;-83
2021/01/22 04:17:54;;;;;;;19.23;2.78;;;13.00;99.90;;;;;;4731779;30;20032;-83
2021/01/22 04:20:23;;;;;;;18.10;4.05;;;13.00;99.90;;;;;;4716418;30;20614;-83
2021/01/22 04:22:52;;;;;;;15.95;3.72;;;13.00;99.90;;;;;;4746373;30;20032;-82
2021/01/22 04:25:19;;;;;;;20.67;3.95;;;13.00;99.90;;;;;;4731492;30;20059;-83
2021/01/22 04:27:46;;;;;;;21.00;3.78;;;13.00;99.90;;;;;;4716324;30;20060;-83
2021/01/22 04:30:13;;;;;;;27.30;5.28;;;13.00;99.90;;;;;;4731280;30;20040;-82
2021/01/22 04:32:40;;;;;;;17.40;3.78;;;13.00;99.90;;;;;;4716962;30;20525;-82
2021/01/22 04:35:11;;;;;;;10.10;3.28;;;13.00;99.90;;;;;;4727743;30;20033;-82
2021/01/22 04:37:37;;;;;;;14.68;4.07;;;13.00;99.90;;;;;;4699820;30;20044;-84
2021/01/22 04:40:04;;;;;;;21.60;2.97;;;13.00;99.90;;;;;;4730327;30;20510;-82
2021/01/22 04:42:30;;;;;;;19.50;4.22;;;13.00;99.90;;;;;;4740372;30;20028;-83
2021/01/22 04:44:56;;;;;;;18.60;4.18;;;12.90;99.90;;;;;;4745965;30;20120;-83
2021/01/22 04:47:23;;;;;;;13.82;3.22;;;12.90;99.90;;;;;;4716413;30;20036;-83
2021/01/22 04:49:50;;;;;;;19.30;4.10;;;12.90;99.90;;;;;;4730516;30;20433;-83
2021/01/22 04:52:18;;;;;;;15.90;3.83;;;12.90;99.90;;;;;;4718400;30;20126;-83
2021/01/22 04:54:47;;;;;;;23.50;4.15;;;12.90;99.90;;;;;;4748311;30;20036;-82
2021/01/22 04:57:15;;;;;;;16.48;3.80;;;12.90;99.90;;;;;;4730223;30;20040;-83
2021/01/22 04:59:51;;;;;;;25.63;3.50;;;12.90;99.90;;;;;;4716172;30;20036;-83
2021/01/22 05:02:18;;;;;;;17.88;3.08;;;12.90;99.90;;;;;;4733779;30;20041;-83
2021/01/22 05:04:44;;;;;;;25.70;3.38;;;12.90;99.90;;;;;;4748158;30;20044;-83
2021/01/22 05:07:11;;;;;;;19.80;4.15;;;12.90;99.90;;;;;;4721337;30;20089;-83
2021/01/22 05:09:39;;;;;;;24.33;5.22;;;12.90;99.90;;;;;;4719288;30;20107;-83
2021/01/22 05:12:07;;;;;;;19.60;4.18;;;12.90;99.90;;;;;;4730669;30;20139;-82
2021/01/22 05:14:36;;;;;;;11.18;3.22;;;12.90;99.90;;;;;;4732624;30;20037;-81
2021/01/22 05:17:10;;;;;;;16.75;3.92;;;12.90;99.90;;;;;;4715858;30;20123;-83
2021/01/22 05:19:39;;;;;;;19.88;3.63;;;13.00;99.90;;;;;;4730284;30;20491;-83
2021/01/22 05:22:06;;;;;;;11.20;2.53;;;13.00;99.90;;;;;;4730551;30;20041;-83
2021/01/22 05:24:36;;;;;;;20.35;3.00;;;13.00;99.90;;;;;;4744616;30;20040;-82
2021/01/22 05:27:13;;;;;;;9.52;3.15;;;13.00;99.90;;;;;;4731530;30;20041;-83
2021/01/22 05:29:41;;;;;;;17.00;4.50;;;13.00;99.90;;;;;;4715452;30;20033;-83
2021/01/22 05:32:31;;;;;;;28.17;3.13;;;13.00;99.90;;;;;;4730589;30;20058;-81
2021/01/22 05:34:58;;;;;;;18.85;3.60;;;13.00;99.90;;;;;;4742182;30;20043;-83
2021/01/22 05:37:27;;;;;;;10.55;3.38;;;13.00;99.90;;;;;;4738811;30;20116;-83
2021/01/22 05:40:13;;;;;;;14.65;2.50;;;13.00;99.90;;;;;;4729865;30;20423;-82
2021/01/22 05:42:51;;;;;;;16.00;3.38;;;13.00;99.90;;;;;;4730462;30;20513;-83
2021/01/22 05:45:36;;;;;;;15.48;3.35;;;13.00;99.90;;;;;;4741777;30;20040;-83
2021/01/22 05:48:04;;;;;;;12.82;3.25;;;13.10;99.90;;;;;;4736705;30;20044;-82
2021/01/22 05:50:46;;;;;;;18.30;3.17;;;13.10;99.90;;;;;;4731224;30;20040;-81
2021/01/22 05:53:17;;;;;;;18.80;3.60;;;13.10;99.90;;;;;;4716042;30;20044;-83
2021/01/22 05:55:44;;;;;;;10.13;3.13;;;13.10;99.90;;;;;;4744301;30;20028;-83
2021/01/22 05:58:10;;;;;;;12.63;3.85;;;13.10;99.90;;;;;;4739231;30;20399;-83
2021/01/22 06:00:36;;;;;;;8.80;2.60;;;13.10;99.90;;;;;;4729908;30;20041;-82
2021/01/22 06:03:21;;;;;;;14.20;3.20;;;13.10;99.90;;;;;;4730150;30;20460;-83
2021/01/22 06:05:54;;;;;;;14.23;2.33;;;13.10;99.90;;;;;;4730366;30;20106;-83
2021/01/22 06:08:20;;;;;;;11.10;3.10;;;13.10;99.90;;;;;;4729726;30;20221;-83
2021/01/22 06:10:47;;;;;;;14.23;3.25;;;13.10;99.90;;;;;;4728083;30;20059;-82
2021/01/22 06:13:31;;;;;;;21.20;5.03;;;13.10;99.90;;;;;;4726561;30;20128;-82
2021/01/22 06:16:04;;;;;;;16.02;4.03;;;13.10;99.90;;;;;;4725427;30;20045;-82
2021/01/22 06:18:31;;;;;;;12.30;2.80;;;13.20;99.90;;;;;;4732687;30;20036;-84
2021/01/22 06:21:12;;;;;;;17.25;2.97;;;13.10;99.90;;;;;;4717112;30;20028;-83
2021/01/22 06:23:39;;;;;;;14.60;3.25;;;13.10;99.90;;;;;;4730553;30;21119;-83
2021/01/22 06:26:06;;;;;;;10.38;2.55;;;13.20;99.90;;;;;;4717378;30;20047;-83
2021/01/22 06:28:34;;;;;;;14.38;3.55;;;13.20;99.90;;;;;;4716354;30;20037;-82
2021/01/22 06:31:03;;;;;;;14.10;3.15;;;13.20;99.90;;;;;;4732137;30;20028;-83
2021/01/22 06:33:29;;;;;;;11.65;3.15;;;13.20;99.90;;;;;;4731472;30;20040;-82
2021/01/22 06:35:56;;;;;;;11.43;2.72;;;13.30;99.90;;;;;;4734166;30;20032;-83
2021/01/22 06:38:23;;;;;;;17.40;3.88;;;13.30;99.90;;;;;;4731087;30;20052;-83
2021/01/22 06:40:52;;;;;;;22.10;4.45;;;13.30;99.90;;;;;;4731713;30;20037;-84
2021/01/22 06:43:22;;;;;;;11.38;2.40;;;13.30;99.90;;;;;;4731428;30;20039;-83
2021/01/22 06:45:48;;;;;;;14.80;3.22;;;13.30;99.90;;;;;;4731890;30;20025;-81
2021/01/22 06:48:14;;;;;;;10.07;2.60;;;13.30;99.90;;;;;;4736469;30;20115;-82
2021/01/22 06:50:41;;;;;;;14.55;3.63;;;13.30;99.90;;;;;;4732532;30;20036;-83
2021/01/22 06:53:13;;;;;;;18.42;2.78;;;13.30;99.90;;;;;;4730301;30;20064;-83
2021/01/22 06:55:51;;;;;;;10.57;3.53;;;13.30;99.90;;;;;;4727308;30;20064;-83
2021/01/22 06:58:25;;;;;;;21.23;3.67;;;13.40;99.90;;;;;;4710904;30;20503;-83
2021/01/22 07:00:56;;;;;;;16.85;3.63;;;13.40;99.90;;;;;;4731063;30;20115;-82
2021/01/22 07:03:35;;;;;;;11.27;3.42;;;13.40;99.90;;;;;;4716776;30;20136;-83
2021/01/22 07:06:04;;;;;;;10.45;2.72;;;13.40;99.90;;;;;;4729661;30;20051;-83
2021/01/22 07:08:49;;;;;;;14.80;3.45;;;13.50;99.90;;;;;;4727733;30;20094;-82
2021/01/22 07:11:16;;;;;;;24.75;4.25;;;13.50;99.90;;;;;;4723682;30;20623;-82
2021/01/22 07:13:43;;;;;;;11.88;2.78;;;13.50;99.90;;;;;;4731358;30;20044;-82
2021/01/22 07:16:11;;;;;;;24.55;4.15;;;13.50;99.90;;;;;;4729691;30;20044;-82
2021/01/22 07:18:55;;;;;;;8.70;2.60;;;13.60;99.90;;;;;;4730280;30;20040;-81
2021/01/22 07:21:28;;;;;;;12.68;3.42;;;13.60;99.90;;;;;;4708900;30;20126;-83
2021/01/22 07:24:05;;;;;;;17.77;4.05;;;13.60;99.90;;;;;;4728470;30;20514;-83
2021/01/22 07:26:43;;;;;;;15.63;3.95;;;13.60;99.90;;;;;;4732262;30;20071;-82
2021/01/22 07:29:25;;;;;;;16.23;3.75;;;13.70;99.90;;;;;;4731237;30;20028;-82
2021/01/22 07:31:53;;;;;;;14.43;2.88;;;13.70;99.90;;;;;;4729108;30;20044;-82
2021/01/22 07:34:44;;;;;;;15.20;4.22;;;13.70;99.90;;;;;;4730526;30;20037;-82
2021/01/22 07:37:13;;;;;;;13.00;3.35;;;13.70;99.90;;;;;;4735739;30;20093;-82
2021/01/22 07:39:40;;;;;;;14.88;3.40;;;13.70;99.90;;;;;;4729998;30;20044;-82
2021/01/22 07:42:15;;;;;;;17.00;2.95;;;13.70;99.90;;;;;;4729480;30;20051;-81
2021/01/22 07:44:47;;;;;;;16.45;3.15;;;13.80;99.90;;;;;;4730092;30;20032;-82
2021/01/22 07:47:28;;;;;;;20.25;3.45;;;13.90;99.90;;;;;;4731647;30;20039;-83
2021/01/22 07:49:56;;;;;;;12.52;3.22;;;13.90;99.90;;;;;;4710244;30;20506;-83
2021/01/22 07:52:22;;;;;;;23.77;4.70;;;13.90;99.90;;;;;;4730894;30;20491;-82
2021/01/22 07:54:50;;;;;;;11.98;2.63;;;13.90;99.90;;;;;;4729666;30;20482;-82
2021/01/22 07:57:21;;;;;;;13.77;3.60;;;14.00;99.90;;;;;;4716212;30;20410;-81
2021/01/22 07:59:49;;;;;;;11.05;2.35;;;14.00;99.90;;;;;;4729319;30;20414;-82
2021/01/22 08:02:20;;;;;;;9.93;2.22;;;14.00;99.90;;;;;;4730431;30;20064;-81
2021/01/22 08:05:00;;;;;;;18.85;3.05;;;14.00;99.90;;;;;;4727397;30;20032;-82
2021/01/22 08:07:38;;;;;;;9.80;2.95;;;14.10;99.90;;;;;;4727477;30;20064;-82
2021/01/22 08:10:13;;;;;;;11.88;3.40;;;14.10;99.90;;;;;;4724748;30;20036;-82
2021/01/22 08:12:55;;;;;;;16.15;2.85;;;14.20;99.90;;;;;;4723584;30;20048;-82
2021/01/22 08:15:22;;;;;;;13.18;2.58;;;14.20;99.90;;;;;;4729991;30;20024;-82
2021/01/22 08:17:49;;;;;;;14.77;2.45;;;14.30;99.90;;;;;;4731389;30;20028;-81
2021/01/22 08:20:17;;;;;;;8.27;1.83;;;14.40;99.90;;;;;;4729918;30;20124;-81
2021/01/22 08:22:54;;;;;;;14.13;3.22;;;14.50;99.90;;;;;;4716166;30;20047;-80
2021/01/22 08:25:35;;;;;;;10.70;2.20;;;14.50;99.90;;;;;;4729697;30;20573;-82
2021/01/22 08:28:06;;;;;;;12.23;2.85;;;14.50;99.90;;;;;;4707875;30;20041;-87
2021/01/22 08:30:33;;;;;;;11.25;3.05;;;14.60;99.90;;;;;;4729583;30;20454;-82
2021/01/22 08:33:00;;;;;;;15.40;3.85;;;14.60;99.90;;;;;;4730095;30;20158;-84
2021/01/22 08:35:28;;;;;;;14.27;2.58;;;14.60;99.90;;;;;;4728525;30;20041;-83
2021/01/22 08:37:55;;;;;;;9.57;1.70;;;14.70;99.90;;;;;;4729829;30;20028;-84
2021/01/22 08:40:39;;;;;;;10.60;2.65;;;14.70;99.90;;;;;;4728940;30;20134;-82
2021/01/22 08:43:12;;;;;;;11.73;2.40;;;14.70;99.90;;;;;;4728807;30;20068;-83
2021/01/22 08:46:03;;;;;;;9.57;2.15;;;14.70;99.90;;;;;;4712257;30;20391;-83
2021/01/22 08:48:29;;;;;;;12.23;3.63;;;14.70;99.90;;;;;;4707601;30;20033;-83
2021/01/22 08:51:00;;;;;;;9.57;2.10;;;14.60;99.90;;;;;;4715145;30;20043;-83
2021/01/22 08:53:26;;;;;;;10.07;2.10;;;14.60;99.90;;;;;;4707990;30;20044;-83
2021/01/22 08:56:12;;;;;;;11.63;1.90;;;14.60;99.90;;;;;;4729060;30;20119;-83
2021/01/22 08:59:04;;;;;;;15.23;2.85;;;14.70;99.90;;;;;;4728720;30;20040;-83
2021/01/22 09:02:03;;;;;;;16.60;3.00;;;14.70;99.90;;;;;;4712574;30;20041;-82
2021/01/22 09:04:33;;;;;;;5.57;1.85;;;14.80;99.90;;;;;;4694132;30;20040;-82
2021/01/22 09:07:02;;;;;;;12.05;2.00;;;14.80;99.90;;;;;;4728187;30;20114;-82
2021/01/22 09:09:36;;;;;;;8.38;2.63;;;14.80;99.90;;;;;;4729410;30;20391;-81
2021/01/22 09:12:26;;;;;;;12.35;2.58;;;15.00;99.90;;;;;;4725444;30;20121;-81
2021/01/22 09:14:55;;;;;;;8.35;2.33;;;15.10;99.90;;;;;;4728026;30;20090;-82
2021/01/22 09:17:37;;;;;;;9.85;2.60;;;15.10;99.90;;;;;;4727130;30;20392;-81
2021/01/22 09:20:17;;;;;;;14.82;3.15;;;15.10;99.90;;;;;;4736317;30;20105;-81
2021/01/22 09:22:46;;;;;;;10.95;2.65;;;15.20;99.90;;;;;;4728044;30;20052;-81
2021/01/22 09:25:15;;;;;;;8.05;2.25;;;15.20;99.90;;;;;;4730255;30;20028;-80
2021/01/22 09:27:43;;;;;;;13.15;2.13;;;15.20;99.90;;;;;;4728670;30;20048;-81
2021/01/22 09:30:12;;;;;;;12.38;2.67;;;15.20;99.90;;;;;;4715203;30;20487;-81
2021/01/22 09:32:39;;;;;;;9.27;2.17;;;15.30;99.90;;;;;;4728519;30;20056;-82
2021/01/22 09:35:06;;;;;;;7.05;2.58;;;15.30;99.90;;;;;;4726326;30;20047;-81
2021/01/22 09:37:34;;;;;;;13.15;2.28;;;15.40;99.90;;;;;;4727920;30;20095;-81
2021/01/22 09:40:00;;;;;;;12.95;2.25;;;15.50;99.90;;;;;;4706821;30;20065;-81
2021/01/22 09:42:26;;;;;;;9.13;2.05;;;15.50;99.90;;;;;;4728772;30;20037;-82
2021/01/22 09:44:52;;;;;;;8.70;3.83;;;15.50;99.90;;;;;;4718631;30;20402;-81
2021/01/22 09:47:18;;;;;;;9.77;2.05;;;15.50;99.90;;;;;;4716522;30;20032;-81
2021/01/22 09:49:46;;;;;;;8.80;2.70;;;15.40;99.90;;;;;;4733561;30;20032;-80
2021/01/22 09:52:14;;;;;;;10.50;1.65;;;15.30;99.90;;;;;;4716611;30;20090;-81
2021/01/22 09:54:41;;;;;;;13.05;2.50;;;15.30;99.90;;;;;;4731723;30;20090;-81
2021/01/22 09:57:08;;;;;;;7.22;2.58;;;15.30;99.90;;;;;;4733499;30;20025;-81
2021/01/22 09:59:34;;;;;;;11.15;2.10;;;15.20;99.90;;;;;;4731704;30;20119;-81
2021/01/22 10:02:00;;;;;;;7.90;2.22;;;15.30;99.90;;;;;;4718250;30;20037;-82
2021/01/22 10:04:27;;;;;;;11.60;3.03;;;15.30;99.90;;;;;;4731454;30;20033;-82
2021/01/22 10:06:53;;;;;;;9.40;2.03;;;15.30;99.90;;;;;;4717015;30;20049;-81
2021/01/22 10:09:19;;;;;;;10.40;3.17;;;15.40;99.90;;;;;;4730415;30;20079;-82
2021/01/22 10:11:45;;;;;;;10.02;2.30;;;15.60;99.90;;;;;;4733771;30;20041;-81
2021/01/22 10:14:11;;;;;;;7.75;2.00;;;15.80;99.90;;;;;;4718639;30;20552;-81
2021/01/22 10:16:37;;;;;;;6.75;1.90;;;15.90;99.90;;;;;;4721709;30;20104;-81
2021/01/22 10:19:05;;;;;;;13.63;1.83;;;15.90;99.90;;;;;;4731254;30;20045;-81
2021/01/22 10:21:31;;;;;;;8.07;2.65;;;16.00;99.90;;;;;;4731825;30;20056;-77
2021/01/22 10:23:58;;;;;;;5.93;1.83;;;16.00;99.90;;;;;;4731457;30;20102;-77
2021/01/22 10:26:24;;;;;;;7.72;2.10;;;16.10;99.90;;;;;;4731560;30;20063;-77
2021/01/22 10:28:52;;;;;;;11.35;2.28;;;16.10;99.90;;;;;;4730905;30;20395;-77
2021/01/22 10:31:19;;;;;;;5.90;2.20;;;16.00;99.90;;;;;;4732698;30;20122;-77
2021/01/22 10:33:46;;;;;;;7.40;1.65;;;16.00;99.90;;;;;;4732335;30;20036;-77
2021/01/22 10:36:13;;;;;;;4.25;1.45;;;15.90;99.90;;;;;;4731618;30;20082;-77
2021/01/22 10:38:40;;;;;;;10.95;1.63;;;15.90;99.90;;;;;;4731451;30;20463;-76
2021/01/22 10:41:08;;;;;;;9.18;2.08;;;15.90;99.90;;;;;;4732028;30;20491;-77
2021/01/22 10:43:35;;;;;;;7.93;1.80;;;15.90;99.90;;;;;;4731063;30;20116;-76
2021/01/22 10:46:02;;;;;;;6.22;2.28;;;15.80;99.90;;;;;;4731463;30;20040;-77
2021/01/22 10:48:28;;;;;;;9.38;2.30;;;15.80;99.90;;;;;;4729982;30;20037;-76
2021/01/22 10:50:55;;;;;;;12.02;1.95;;;16.00;99.90;;;;;;4732216;30;20468;-77
2021/01/22 10:53:22;;;;;;;6.78;2.53;;;16.00;99.90;;;;;;4727362;30;20047;-77
2021/01/22 10:55:48;;;;;;;8.68;1.70;;;16.10;99.90;;;;;;4729747;30;20032;-77
2021/01/22 10:58:14;;;;;;;10.98;1.98;;;16.10;99.90;;;;;;4732371;30;20066;-76
2021/01/22 11:00:40;;;;;;;8.38;2.67;;;16.20;99.90;;;;;;4730852;30;20117;-76
2021/01/22 11:03:07;;;;;;;5.85;2.03;;;16.30;99.90;;;;;;4731360;30;20029;-76
2021/01/22 11:05:33;;;;;;;15.50;2.97;;;16.50;99.90;;;;;;4731958;30;20033;-76
2021/01/22 11:07:59;;;;;;;11.02;2.72;;;16.50;99.90;;;;;;4731287;30;20061;-76
2021/01/22 11:10:26;;;;;;;7.43;1.60;;;16.60;99.90;;;;;;4732151;30;20029;-76
2021/01/22 11:12:53;;;;;;;12.38;3.40;;;16.60;99.90;;;;;;4731039;30;20047;-76
2021/01/22 11:15:19;;;;;;;15.75;2.63;;;16.70;99.90;;;;;;4729639;30;20040;-76
2021/01/22 11:17:46;;;;;;;14.35;2.33;;;16.70;99.90;;;;;;4730419;30;20094;-76
2021/01/22 11:20:13;;;;;;;9.88;4.63;;;16.60;99.90;;;;;;4728606;30;20039;-75
2021/01/22 11:22:40;;;;;;;9.55;3.33;;;16.70;99.90;;;;;;4731389;30;20044;-76
2021/01/22 11:25:06;;;;;;;16.42;5.88;;;16.80;99.90;;;;;;4733524;30;20040;-76
2021/01/22 11:27:32;;;;;;;19.65;7.35;;;16.80;99.90;;;;;;4729126;30;20039;-76
2021/01/22 11:29:58;;;;;;;15.65;3.42;;;16.80;99.90;;;;;;4730419;30;20033;-76
2021/01/22 11:32:24;;;;;;;11.68;2.50;;;16.90;99.90;;;;;;4730183;30;20048;-76
2021/01/22 11:34:51;;;;;;;12.05;2.20;;;16.90;99.90;;;;;;4730797;30;20479;-77
2021/01/22 11:37:17;;;;;;;8.98;3.10;;;16.80;99.90;;;;;;4731262;30;20041;-76
2021/01/22 11:39:43;;;;;;;17.65;3.00;;;16.80;99.90;;;;;;4731039;30;20029;-76
2021/01/22 11:42:10;;;;;;;8.70;2.65;;;17.00;99.90;;;;;;4729977;30;20037;-77
2021/01/22 11:44:37;;;;;;;6.72;1.95;;;17.00;99.90;;;;;;4730947;30;20394;-76
2021/01/22 11:47:04;;;;;;;29.42;4.18;;;16.90;99.90;;;;;;4730871;30;20483;-76
2021/01/22 11:49:31;;;;;;;7.07;2.72;;;16.80;99.90;;;;;;4730855;30;20188;-77
2021/01/22 11:51:58;;;;;;;11.90;2.85;;;17.00;99.90;;;;;;4729980;30;20033;-77
2021/01/22 11:54:24;;;;;;;17.67;3.25;;;17.00;99.90;;;;;;4731927;30;20064;-77
2021/01/22 11:56:51;;;;;;;10.23;2.90;;;17.00;99.90;;;;;;4731195;30;20040;-77
2021/01/22 11:59:18;;;;;;;6.65;2.78;;;16.90;99.90;;;;;;4730588;30;20638;-77
2021/01/22 12:01:45;;;;;;;15.20;2.42;;;16.80;99.90;;;;;;4729256;30;20037;-77
2021/01/22 12:04:11;;;;;;;21.10;4.10;;;16.90;99.90;;;;;;4730542;30;20738;-77
2021/01/22 12:06:38;;;;;;;7.72;2.47;;;17.00;99.90;;;;;;4730919;30;20048;-76
2021/01/22 12:09:05;;;;;;;8.73;2.70;;;17.10;99.90;;;;;;4725854;30;20053;-80
2021/01/22 12:11:32;;;;;;;12.95;2.45;;;17.20;99.90;;;;;;4726692;30;20406;-80
2021/01/22 12:13:58;;;;;;;16.42;3.60;;;17.10;99.90;;;;;;4730050;30;20546;-79
2021/01/22 12:16:25;;;;;;;17.13;2.72;;;17.20;99.90;;;;;;4730562;30;20146;-78
2021/01/22 12:18:52;;;;;;;11.55;2.95;;;17.20;99.90;;;;;;4730711;30;20074;-80
2021/01/22 12:21:19;;;;;;;9.80;2.25;;;17.10;99.90;;;;;;4727553;30;20032;-83
2021/01/22 12:23:45;;;;;;;15.60;2.92;;;17.10;99.90;;;;;;4732282;30;20380;-80
2021/01/22 12:26:12;;;;;;;10.82;2.63;;;16.90;99.90;;;;;;4732741;30;20483;-81
2021/01/22 12:28:39;;;;;;;10.27;2.65;;;17.10;99.90;;;;;;4711996;30;20116;-81
2021/01/22 12:31:06;;;;;;;17.20;3.10;;;17.10;99.90;;;;;;4729144;30;20039;-84
2021/01/22 12:33:33;;;;;;;8.05;2.83;;;16.90;99.90;;;;;;4714532;30;20411;-79
2021/01/22 12:36:01;;;;;;;12.95;3.33;;;16.70;99.90;;;;;;4727847;30;20028;-78
2021/01/22 12:38:28;;;;;;;11.60;3.60;;;16.50;99.90;;;;;;4729325;30;20047;-78
2021/01/22 12:40:56;;;;;;;7.45;2.22;;;16.40;99.90;;;;;;4729225;30;20051;-80
2021/01/22 12:43:22;;;;;;;9.98;3.10;;;16.40;99.90;;;;;;4729440;30;20040;-81
2021/01/22 12:45:48;;;;;;;10.20;2.83;;;16.60;99.90;;;;;;4729409;30;20044;-80
2021/01/22 12:48:14;;;;;;;11.25;2.75;;;16.70;99.90;;;;;;4708349;30;20036;-80